Time;durP1;ratioP1;P1;durP2;ratioP2;P2;SDS_P1;SDS_P2;PMS_P1;PMS_P2;Temp;Humidity;BMP_temperature;BMP_pressure;BME280_temperature;BME280_humidity;BME280_pressure;Samples;Min_cycle;Max_cycle;Signal;HPM_P1;HPM_P2
2021/12/05 00:22:42;;;;;;;14.78;5.85;;;;;;;2.22;71.47;97673.20;4226056;83;28531;-74
2021/12/05 01:12:44;;;;;;;11.83;6.20;;;;;;;2.00;71.01;97665.55;4231712;83;28454;-78
2021/12/05 01:18:40;;;;;;;11.95;5.83;;;;;;;2.07;70.47;97662.86;4219257;83;28458;-78
2021/12/05 01:25:15;;;;;;;10.82;5.58;;;;;;;2.06;69.67;97666.02;4211732;82;28455;-78
2021/12/05 01:31:18;;;;;;;13.50;5.92;;;;;;;2.07;71.06;97672.94;4198493;83;28486;-78
2021/12/05 01:37:27;;;;;;;14.28;5.65;;;;;;;2.10;72.46;97665.08;4213905;83;28505;-79
2021/12/05 02:02:39;;;;;;;11.85;5.33;;;;;;;2.07;72.75;97668.16;4195134;83;28507;-76
2021/12/05 02:33:44;;;;;;;12.88;5.55;;;;;;;1.71;81.58;97656.23;4135220;85;28536;-78
2021/12/05 02:39:40;;;;;;;12.68;5.75;;;;;;;1.78;82.89;97661.02;4185429;83;28498;-81
2021/12/05 02:45:39;;;;;;;12.03;5.55;;;;;;;1.76;83.43;97663.86;4218638;83;28566;-80
2021/12/05 02:51:54;;;;;;;12.93;5.92;;;;;;;1.86;82.87;97655.98;4194033;83;28513;-78
2021/12/05 02:58:01;;;;;;;13.32;5.85;;;;;;;1.85;82.91;97663.14;4175070;83;28688;-80
2021/12/05 03:03:59;;;;;;;13.00;5.92;;;;;;;1.92;82.40;97681.67;4183307;84;28517;-79
2021/12/05 03:10:00;;;;;;;12.18;5.62;;;;;;;2.01;83.10;97676.94;4178285;84;28475;-79
2021/12/05 03:16:04;;;;;;;14.45;5.92;;;;;;;1.83;82.99;97678.94;4175099;84;28469;-79
2021/12/05 03:22:05;;;;;;;12.70;5.78;;;;;;;1.80;83.50;97676.19;4172227;84;28466;-81
2021/12/05 03:28:08;;;;;;;12.40;5.40;;;;;;;1.93;83.99;97680.15;4152003;84;28495;-80
2021/12/05 03:34:15;;;;;;;11.65;5.67;;;;;;;1.88;95.28;97677.82;4187011;84;28457;-79
2021/12/05 03:40:21;;;;;;;13.28;6.05;;;;;;;1.88;96.98;97667.22;4180254;83;28478;-80
2021/12/05 03:46:23;;;;;;;;;;;;;;;1.87;100.00;97661.59;4154330;84;28545;-79
2021/12/05 03:52:27;;;;;;;16.67;6.62;;;;;;;1.69;100.00;97667.55;4186547;84;20244;-79
2021/12/05 03:58:28;;;;;;;13.68;6.65;;;;;;;1.70;100.00;97667.85;4155502;84;28870;-78
2021/12/05 04:04:31;;;;;;;13.48;6.47;;;;;;;1.64;100.00;97674.30;4181976;84;28482;-78
2021/12/05 04:10:36;;;;;;;14.18;6.22;;;;;;;1.64;100.00;97668.17;4113797;85;28445;-77
2021/12/05 04:16:40;;;;;;;11.88;5.85;;;;;;;1.60;100.00;97670.42;4127378;85;28457;-78
2021/12/05 04:22:44;;;;;;;10.32;5.37;;;;;;;1.51;100.00;97680.92;4168846;84;28427;-78
2021/12/05 04:28:47;;;;;;;11.33;5.28;;;;;;;1.53;100.00;97679.70;4154026;85;28540;-77
2021/12/05 04:34:49;;;;;;;10.43;5.10;;;;;;;1.45;100.00;97679.11;4116877;86;28543;-79
2021/12/05 04:40:52;;;;;;;11.15;5.92;;;;;;;1.39;100.00;97686.84;4175692;85;28525;-77
2021/12/05 04:46:53;;;;;;;9.80;5.10;;;;;;;1.33;100.00;97688.18;4119705;85;28536;-77
2021/12/05 04:52:56;;;;;;;8.53;4.85;;;;;;;1.29;100.00;97701.53;4180033;85;28475;-79
2021/12/05 04:58:59;;;;;;;9.23;5.12;;;;;;;1.22;100.00;97690.42;4211637;84;28536;-78
2021/12/05 05:05:03;;;;;;;10.08;5.10;;;;;;;1.20;100.00;97700.41;4181124;84;28486;-78
2021/12/05 05:11:09;;;;;;;8.85;4.28;;;;;;;1.27;100.00;97701.73;4167299;84;28520;-79
2021/12/05 05:17:12;;;;;;;8.45;4.33;;;;;;;1.17;100.00;97710.59;4154489;84;28493;-79
2021/12/05 05:29:39;;;;;;;8.08;4.42;;;;;;;1.17;100.00;97704.80;4179396;84;28501;-78
2021/12/05 05:43:05;;;;;;;9.08;4.67;;;;;;;1.27;100.00;97716.81;4170762;84;28513;-77
2021/12/05 05:48:26;;;;;;;10.58;4.45;;;;;;;1.22;100.00;97722.20;4119714;85;28887;-78
2021/12/05 05:54:03;;;;;;;8.73;4.25;;;;;;;1.25;100.00;97724.95;4110453;84;28570;-78
2021/12/05 06:00:17;;;;;;;9.80;5.12;;;;;;;1.22;100.00;97728.81;4152467;84;28569;-79
2021/12/05 06:06:17;;;;;;;8.45;4.80;;;;;;;1.16;100.00;97736.76;4130484;84;28524;-78
2021/12/05 06:12:20;;;;;;;11.83;4.80;;;;;;;1.10;100.00;97741.03;4111948;85;28525;-78
2021/12/05 06:18:22;;;;;;;9.15;4.50;;;;;;;1.07;100.00;97741.44;4123299;86;28584;-77
2021/12/05 06:24:24;;;;;;;8.70;4.55;;;;;;;1.03;100.00;97747.64;4119200;85;28564;-78
2021/12/05 06:31:10;;;;;;;9.13;4.55;;;;;;;1.09;100.00;97747.34;4128054;85;28473;-77
2021/12/05 06:43:07;;;;;;;10.18;4.58;;;;;;;1.06;100.00;97753.84;4120967;85;28464;-77
2021/12/05 06:49:05;;;;;;;9.63;4.87;;;;;;;1.15;100.00;97759.78;4120745;85;28489;-76
2021/12/05 06:55:07;;;;;;;10.43;4.80;;;;;;;1.23;100.00;97768.04;4131578;86;28467;-77
2021/12/05 07:01:11;;;;;;;9.68;4.75;;;;;;;1.40;100.00;97772.43;4160238;84;28494;-78
2021/12/05 07:07:27;;;;;;;8.13;4.80;;;;;;;1.35;100.00;97777.01;4121389;85;28455;-77
2021/12/05 07:14:08;;;;;;;9.30;5.53;;;;;;;1.43;100.00;97782.61;4139986;85;28557;-77
2021/12/05 07:19:56;;;;;;;10.45;5.30;;;;;;;1.51;100.00;97785.06;4098115;86;28493;-76
2021/12/05 07:25:53;;;;;;;12.00;5.33;;;;;;;1.49;100.00;97789.76;4157513;84;28571;-74
2021/12/05 07:44:12;;;;;;;12.05;5.70;;;;;;;1.63;100.00;97795.05;4142786;86;28526;-71
2021/12/05 07:50:14;;;;;;;11.10;5.30;;;;;;;1.53;100.00;97793.62;4160695;86;28550;-72
2021/12/05 08:15:21;;;;;;;9.33;4.62;;;;;;;1.72;100.00;97793.00;4142228;84;28501;-70
2021/12/05 08:21:22;;;;;;;11.78;4.95;;;;;;;1.84;100.00;97797.19;4147153;85;28539;-69
2021/12/05 08:27:23;;;;;;;13.43;5.97;;;;;;;1.89;100.00;97796.88;4152220;84;28931;-69
2021/12/05 08:46:15;;;;;;;10.40;5.33;;;;;;;1.94;100.00;97817.46;4147564;84;28503;-72
2021/12/05 09:23:59;;;;;;;13.43;6.25;;;;;;;2.39;100.00;97826.56;4140900;84;28559;-69
2021/12/05 10:14:17;;;;;;;13.53;6.62;;;;;;;2.97;100.00;97835.06;4181774;83;28527;-69
2021/12/05 10:26:07;;;;;;;13.22;6.87;;;;;;;2.99;100.00;97839.64;4164971;84;28557;-69
2021/12/05 10:39:23;;;;;;;16.87;7.42;;;;;;;3.12;100.00;97840.60;4183950;83;28504;-73
2021/12/05 10:45:35;;;;;;;15.60;7.47;;;;;;;3.09;100.00;97847.67;4183095;83;28516;-70
2021/12/05 10:51:57;;;;;;;13.30;7.17;;;;;;;3.23;100.00;97841.25;4181529;83;28573;-71
2021/12/05 10:57:57;;;;;;;16.87;8.40;;;;;;;3.35;100.00;97847.52;4181269;85;28564;-69
2021/12/05 11:04:10;;;;;;;14.85;7.60;;;;;;;3.22;100.00;97847.59;4186121;83;28485;-71
2021/12/05 11:10:11;;;;;;;15.75;7.58;;;;;;;3.19;100.00;97863.44;4192758;85;28454;-70
2021/12/05 11:16:41;;;;;;;16.73;7.70;;;;;;;3.30;100.00;97867.28;4189031;83;28489;-70
2021/12/05 11:22:46;;;;;;;15.50;7.58;;;;;;;3.04;100.00;97869.02;4193309;83;28462;-70
2021/12/05 11:28:54;;;;;;;14.45;7.55;;;;;;;3.04;100.00;97853.09;4187279;83;28491;-69
2021/12/05 11:34:56;;;;;;;17.10;8.58;;;;;;;3.09;100.00;97854.31;4191947;83;28507;-71
2021/12/05 11:41:07;;;;;;;16.15;8.90;;;;;;;3.14;100.00;97853.16;4192185;83;28505;-71
2021/12/05 11:47:16;;;;;;;19.75;9.20;;;;;;;3.04;100.00;97870.34;4190173;83;28474;-70
2021/12/05 11:53:37;;;;;;;17.57;9.18;;;;;;;3.11;100.00;97876.95;4146157;84;28496;-71
2021/12/05 11:59:49;;;;;;;19.02;8.33;;;;;;;3.07;100.00;97877.09;4188526;83;28462;-70
2021/12/05 12:05:51;;;;;;;15.28;8.13;;;;;;;3.08;100.00;97879.24;4195223;83;28450;-69
2021/12/05 12:11:52;;;;;;;17.12;8.98;;;;;;;3.09;100.00;97890.17;4189937;83;28525;-71
2021/12/05 12:18:04;;;;;;;21.90;10.78;;;;;;;3.16;100.00;97907.70;4194026;83;28525;-71
2021/12/05 12:24:00;;;;;;;23.30;12.65;;;;;;;3.03;100.00;97921.83;4190840;83;28476;-71
2021/12/05 12:30:08;;;;;;;31.52;14.47;;;;;;;3.02;100.00;97918.88;4193807;83;28486;-72
2021/12/05 12:36:10;;;;;;;31.23;14.85;;;;;;;2.88;100.00;97922.61;4187885;83;28526;-70
2021/12/05 12:42:20;;;;;;;28.25;14.25;;;;;;;2.96;100.00;97921.56;4212947;83;28521;-73
2021/12/05 12:48:28;;;;;;;30.52;16.67;;;;;;;3.02;100.00;97914.89;4208795;83;28572;-74
2021/12/05 12:54:48;;;;;;;32.85;16.73;;;;;;;3.09;100.00;97902.92;4216729;83;28540;-72
2021/12/05 13:00:49;;;;;;;35.25;18.92;;;;;;;3.02;100.00;97905.60;4221073;83;28501;-73
2021/12/05 13:13:22;;;;;;;34.93;17.77;;;;;;;3.01;100.00;97896.01;4172063;84;28532;-74
2021/12/05 13:19:26;;;;;;;33.78;16.60;;;;;;;3.08;100.00;97889.87;4180320;84;28474;-72
2021/12/05 13:25:30;;;;;;;37.48;18.75;;;;;;;3.25;100.00;97890.20;4170658;83;28976;-70
2021/12/05 13:31:38;;;;;;;38.65;18.67;;;;;;;3.08;100.00;97903.95;4136829;85;28483;-71
2021/12/05 13:37:48;;;;;;;38.00;18.90;;;;;;;3.04;100.00;97897.44;4177313;83;28567;-71
2021/12/05 13:44:01;;;;;;;40.25;19.60;;;;;;;2.99;100.00;97890.09;4069863;86;28500;-72
2021/12/05 13:50:25;;;;;;;35.85;18.10;;;;;;;3.08;100.00;97910.59;4183748;83;28516;-70
2021/12/05 13:56:28;;;;;;;32.38;17.15;;;;;;;2.93;100.00;97913.00;4177884;85;28470;-71
2021/12/05 14:02:51;;;;;;;39.45;19.02;;;;;;;3.06;100.00;97902.81;4072158;85;28871;-73
2021/12/05 14:08:56;;;;;;;35.10;18.62;;;;;;;2.94;100.00;97904.50;4194158;84;28433;-71
2021/12/05 14:15:05;;;;;;;38.00;18.20;;;;;;;3.00;100.00;97916.95;4125436;85;28512;-71
2021/12/05 14:21:18;;;;;;;35.00;18.60;;;;;;;2.95;100.00;97916.75;4118731;84;28518;-71
2021/12/05 14:27:31;;;;;;;32.95;17.67;;;;;;;2.86;100.00;97931.27;4129248;84;28531;-74
2021/12/05 14:33:51;;;;;;;34.83;18.05;;;;;;;2.87;100.00;97927.09;4216577;83;28548;-72
2021/12/05 14:39:59;;;;;;;34.98;17.62;;;;;;;2.92;100.00;97930.45;4186627;83;28466;-75
2021/12/05 14:46:01;;;;;;;35.25;18.12;;;;;;;2.86;100.00;97937.41;4189757;83;28422;-73
2021/12/05 14:52:05;;;;;;;35.68;17.60;;;;;;;2.92;100.00;97949.04;4197193;83;28505;-74
2021/12/05 14:58:10;;;;;;;34.85;18.40;;;;;;;2.93;100.00;97948.02;4188523;83;28527;-75
2021/12/05 15:04:12;;;;;;;35.92;17.75;;;;;;;2.88;100.00;97957.13;4217949;82;28496;-75
2021/12/05 15:10:22;;;;;;;29.12;15.63;;;;;;;2.83;100.00;97965.72;4216250;82;28574;-72
2021/12/05 15:16:23;;;;;;;33.30;17.37;;;;;;;2.82;100.00;97983.16;4219884;82;28494;-74
2021/12/05 15:22:27;;;;;;;33.48;17.80;;;;;;;2.88;100.00;97992.44;4220711;83;28489;-69
2021/12/05 15:28:28;;;;;;;35.68;18.85;;;;;;;2.87;100.00;97998.78;4211674;83;28478;-71
2021/12/05 15:34:35;;;;;;;40.35;19.75;;;;;;;2.82;100.00;98003.08;4222545;82;28477;-69
2021/12/05 15:40:40;;;;;;;34.90;17.67;;;;;;;2.85;100.00;98002.66;4217741;82;28567;-70
2021/12/05 15:46:42;;;;;;;33.63;18.23;;;;;;;2.87;100.00;98009.92;4220428;83;28524;-73
2021/12/05 15:53:05;;;;;;;32.58;18.15;;;;;;;2.96;100.00;98011.84;4217091;82;28537;-67
2021/12/05 15:59:17;;;;;;;43.30;20.72;;;;;;;2.95;100.00;98026.14;4207634;83;28511;-68
2021/12/05 16:05:22;;;;;;;41.02;20.90;;;;;;;2.83;100.00;98017.98;4200550;83;28935;-70
2021/12/05 16:11:24;;;;;;;43.33;21.82;;;;;;;2.83;100.00;98014.83;4192561;83;28536;-70
2021/12/05 16:17:29;;;;;;;37.20;19.87;;;;;;;2.83;100.00;98021.46;4141695;84;28475;-70
2021/12/05 16:23:34;;;;;;;37.40;19.57;;;;;;;2.89;100.00;98009.20;4200116;83;34396;-70
2021/12/05 16:29:36;;;;;;;39.05;19.52;;;;;;;2.87;100.00;97995.32;4196304;83;28523;-71
2021/12/05 16:35:43;;;;;;;41.00;20.72;;;;;;;2.99;100.00;98006.94;4194546;83;28460;-69
2021/12/05 16:41:52;;;;;;;44.23;21.95;;;;;;;3.10;100.00;98005.47;4191836;83;28518;-69
2021/12/05 16:47:55;;;;;;;39.10;20.17;;;;;;;3.12;100.00;98015.89;4190736;83;28494;-69
2021/12/05 16:54:04;;;;;;;44.33;22.42;;;;;;;2.89;100.00;98005.22;4191188;83;28542;-70
2021/12/05 17:00:17;;;;;;;41.98;22.62;;;;;;;2.79;100.00;98010.44;4196615;83;28571;-70
2021/12/05 17:06:18;;;;;;;39.75;20.43;;;;;;;2.72;100.00;98016.25;4179149;84;28552;-70
2021/12/05 17:12:32;;;;;;;44.40;22.05;;;;;;;2.71;100.00;98025.73;4180916;84;28466;-71
2021/12/05 17:18:45;;;;;;;40.50;20.60;;;;;;;2.76;100.00;98010.86;4173515;84;28508;-71
2021/12/05 17:24:47;;;;;;;41.20;21.80;;;;;;;2.72;100.00;98014.92;4174811;84;28496;-70
2021/12/05 17:30:55;;;;;;;39.58;21.37;;;;;;;2.78;100.00;98026.56;4185098;83;28483;-71
2021/12/05 17:37:10;;;;;;;41.10;20.85;;;;;;;2.64;100.00;98019.11;4182033;84;28497;-70
2021/12/05 17:43:11;;;;;;;40.05;20.65;;;;;;;2.66;100.00;98018.42;4181724;84;28489;-70
2021/12/05 17:49:15;;;;;;;40.45;20.55;;;;;;;2.51;100.00;98026.05;4173215;83;28462;-69
2021/12/05 17:55:22;;;;;;;39.18;19.42;;;;;;;2.49;100.00;98021.47;4181010;83;28461;-71
2021/12/05 18:07:44;;;;;;;41.55;20.65;;;;;;;2.51;100.00;98022.60;4145988;84;28578;-70
2021/12/05 18:13:51;;;;;;;49.83;24.25;;;;;;;2.57;100.00;98035.03;4127123;84;28535;-70
2021/12/05 18:19:51;;;;;;;44.15;22.62;;;;;;;2.65;100.00;98038.82;4146624;84;28504;-70
2021/12/05 18:25:54;;;;;;;45.75;24.15;;;;;;;2.57;100.00;98040.88;4160527;84;28480;-69
2021/12/05 18:31:56;;;;;;;48.98;23.65;;;;;;;2.60;100.00;98043.94;4150650;84;28554;-68
2021/12/05 18:38:07;;;;;;;48.63;23.12;;;;;;;2.59;100.00;98058.73;4154009;84;28495;-69
2021/12/05 18:44:15;;;;;;;40.25;20.75;;;;;;;2.63;100.00;98079.84;4144026;84;28472;-68
2021/12/05 18:50:13;;;;;;;43.90;21.52;;;;;;;2.61;100.00;98085.38;4077372;86;28479;-69
2021/12/05 18:56:15;;;;;;;47.05;24.02;;;;;;;2.65;100.00;98091.91;4143505;84;28483;-66
2021/12/05 19:15:10;;;;;;;44.90;23.35;;;;;;;2.62;100.00;98125.98;4122717;85;28511;-73
2021/12/05 19:21:11;;;;;;;42.78;21.77;;;;;;;2.54;100.00;98132.31;4095297;84;28488;-73
2021/12/05 19:27:15;;;;;;;46.68;23.25;;;;;;;2.75;100.00;98129.17;4064927;85;28520;-69
2021/12/05 19:33:20;;;;;;;53.08;23.98;;;;;;;2.64;100.00;98126.59;4167980;84;28597;-70
2021/12/05 19:39:24;;;;;;;43.90;22.87;;;;;;;2.70;100.00;98131.61;4201030;84;28492;-70
2021/12/05 19:45:27;;;;;;;52.60;26.37;;;;;;;2.68;100.00;98141.12;4193916;84;28545;-75
2021/12/05 19:51:32;;;;;;;46.37;23.65;;;;;;;2.65;100.00;98146.31;4202863;83;28525;-74
2021/12/05 19:57:35;;;;;;;44.40;22.27;;;;;;;2.70;100.00;98150.19;4077726;85;28511;-74
2021/12/05 20:03:38;;;;;;;46.33;23.45;;;;;;;2.80;100.00;98139.98;4115438;84;28488;-74
2021/12/05 20:09:40;;;;;;;45.38;23.85;;;;;;;2.81;100.00;98144.80;4153903;84;28496;-73
2021/12/05 20:15:42;;;;;;;50.85;25.45;;;;;;;2.89;100.00;98137.97;4227760;83;28491;-69
2021/12/05 20:21:50;;;;;;;54.98;27.93;;;;;;;2.89;100.00;98133.98;4230612;83;28526;-68
2021/12/05 20:27:53;;;;;;;57.15;28.87;;;;;;;2.78;100.00;98122.95;4221042;83;28497;-68
2021/12/05 20:33:57;;;;;;;47.58;26.10;;;;;;;2.65;100.00;98129.55;4228057;83;28547;-71
2021/12/05 20:39:59;;;;;;;53.45;27.10;;;;;;;2.64;100.00;98123.45;4220593;82;28548;-68
2021/12/05 20:46:00;;;;;;;46.98;25.10;;;;;;;2.61;100.00;98141.11;4228488;82;28547;-71
2021/12/05 20:52:04;;;;;;;56.10;30.35;;;;;;;2.64;100.00;98119.47;4225375;82;28517;-69
2021/12/05 20:58:07;;;;;;;60.60;30.10;;;;;;;2.65;100.00;98129.55;4233615;82;28456;-71
2021/12/05 21:04:08;;;;;;;61.28;30.62;;;;;;;2.67;100.00;98128.87;4194387;83;28475;-71
2021/12/05 21:10:10;;;;;;;61.55;30.75;;;;;;;2.54;100.00;98124.34;4192876;83;28452;-73
2021/12/05 21:16:14;;;;;;;61.25;32.73;;;;;;;2.43;100.00;98123.62;4188721;83;28492;-74
2021/12/05 21:22:20;;;;;;;55.58;29.07;;;;;;;2.26;100.00;98111.23;4184040;83;28493;-75
2021/12/05 21:28:19;;;;;;;58.28;30.35;;;;;;;2.27;100.00;98099.59;4196263;83;28529;-72
2021/12/05 21:34:21;;;;;;;63.00;33.55;;;;;;;2.31;100.00;98085.73;4208512;83;28508;-73
2021/12/05 21:40:31;;;;;;;62.93;33.67;;;;;;;2.13;100.00;98082.83;4195462;83;28506;-73
2021/12/05 21:46:32;;;;;;;67.50;35.23;;;;;;;2.19;100.00;98084.17;4210142;83;28579;-74
2021/12/05 21:52:34;;;;;;;68.97;35.85;;;;;;;2.09;100.00;98097.83;4193968;83;28512;-74
2021/12/05 21:58:38;;;;;;;62.78;33.80;;;;;;;2.07;100.00;98102.48;4195918;83;28458;-75
2021/12/05 22:04:40;;;;;;;63.10;33.83;;;;;;;1.98;100.00;98105.03;4194251;83;28586;-72
2021/12/05 22:10:42;;;;;;;63.90;33.05;;;;;;;2.16;100.00;98124.85;4170968;83;28543;-72
2021/12/05 22:16:44;;;;;;;70.47;36.42;;;;;;;2.15;100.00;98127.20;4204868;83;28521;-73
2021/12/05 22:22:46;;;;;;;71.62;36.88;;;;;;;2.23;100.00;98134.46;4195428;83;28492;-73
2021/12/05 22:28:50;;;;;;;72.82;37.25;;;;;;;2.26;100.00;98131.13;4179453;83;28526;-72
2021/12/05 22:34:52;;;;;;;67.80;36.35;;;;;;;2.15;100.00;98136.48;4178746;83;28483;-73
2021/12/05 22:40:54;;;;;;;69.27;36.50;;;;;;;2.23;100.00;98137.64;4187749;83;28584;-72
2021/12/05 22:46:56;;;;;;;68.72;35.15;;;;;;;2.19;100.00;98144.37;4192598;83;28536;-71
2021/12/05 22:52:57;;;;;;;63.00;33.10;;;;;;;2.16;100.00;98144.25;4187739;83;28556;-72
2021/12/05 22:58:59;;;;;;;66.55;35.43;;;;;;;2.15;100.00;98144.44;4179189;83;28443;-74
2021/12/05 23:05:00;;;;;;;71.28;36.77;;;;;;;2.35;100.00;98136.56;4200922;83;28530;-73
2021/12/05 23:11:06;;;;;;;70.30;36.65;;;;;;;2.42;100.00;98134.72;4209633;83;28459;-73
2021/12/05 23:17:08;;;;;;;82.62;38.92;;;;;;;2.40;100.00;98132.78;4210376;83;28525;-72
2021/12/05 23:23:09;;;;;;;73.37;37.48;;;;;;;2.40;100.00;98129.33;4230669;82;28446;-72
2021/12/05 23:29:15;;;;;;;65.03;34.43;;;;;;;2.30;100.00;98136.33;4235403;83;28451;-72
2021/12/05 23:35:20;;;;;;;67.17;34.58;;;;;;;2.31;100.00;98148.57;4218074;81;28500;-73
2021/12/05 23:41:21;;;;;;;69.62;35.50;;;;;;;2.36;100.00;98154.91;4211437;83;28536;-73
2021/12/05 23:47:24;;;;;;;69.72;36.15;;;;;;;2.33;100.00;98155.81;4200555;83;28538;-71
2021/12/05 23:53:26;;;;;;;70.67;36.10;;;;;;;2.29;100.00;98158.57;4189112;83;28457;-71
2021/12/05 23:59:29;;;;;;;65.50;34.20;;;;;;;2.27;100.00;98157.95;4202263;83;28480;-71
